sensor_id;sensor_type;location;lat;lon;timestamp;P1;durP1;ratioP1;P2;durP2;ratioP2
13147;SDS011;6639;50.956;4.242;2023-02-19T00:01:25;19.10;;;12.13;;
13147;SDS011;6639;50.956;4.242;2023-02-19T00:03:54;15.18;;;11.15;;
13147;SDS011;6639;50.956;4.242;2023-02-19T00:06:24;15.43;;;11.05;;
13147;SDS011;6639;50.956;4.242;2023-02-19T00:08:52;13.02;;;11.65;;
13147;SDS011;6639;50.956;4.242;2023-02-19T00:11:20;13.32;;;10.20;;
13147;SDS011;6639;50.956;4.242;2023-02-19T00:13:49;12.63;;;11.32;;
13147;SDS011;6639;50.956;4.242;2023-02-19T00:16:19;22.77;;;18.42;;
13147;SDS011;6639;50.956;4.242;2023-02-19T00:18:47;20.23;;;14.20;;
13147;SDS011;6639;50.956;4.242;2023-02-19T00:21:14;18.25;;;12.90;;
13147;SDS011;6639;50.956;4.242;2023-02-19T00:23:44;18.75;;;12.57;;
13147;SDS011;6639;50.956;4.242;2023-02-19T00:26:14;13.50;;;10.77;;
13147;SDS011;6639;50.956;4.242;2023-02-19T00:28:41;11.40;;;10.20;;
13147;SDS011;6639;50.956;4.242;2023-02-19T00:31:08;12.77;;;9.68;;
13147;SDS011;6639;50.956;4.242;2023-02-19T00:33:40;10.68;;;9.57;;
13147;SDS011;6639;50.956;4.242;2023-02-19T00:36:07;10.40;;;9.10;;
13147;SDS011;6639;50.956;4.242;2023-02-19T00:38:35;12.40;;;9.35;;
13147;SDS011;6639;50.956;4.242;2023-02-19T00:41:04;12.65;;;9.30;;
13147;SDS011;6639;50.956;4.242;2023-02-19T00:43:43;10.93;;;8.75;;
13147;SDS011;6639;50.956;4.242;2023-02-19T00:46:10;9.95;;;8.55;;
13147;SDS011;6639;50.956;4.242;2023-02-19T00:48:37;11.15;;;7.72;;
13147;SDS011;6639;50.956;4.242;2023-02-19T00:51:04;11.82;;;8.75;;
13147;SDS011;6639;50.956;4.242;2023-02-19T00:53:31;9.30;;;7.13;;
13147;SDS011;6639;50.956;4.242;2023-02-19T00:55:58;8.45;;;6.97;;
13147;SDS011;6639;50.956;4.242;2023-02-19T00:58:26;10.40;;;7.15;;
13147;SDS011;6639;50.956;4.242;2023-02-19T01:00:53;10.52;;;6.90;;
13147;SDS011;6639;50.956;4.242;2023-02-19T01:03:20;9.85;;;6.57;;
13147;SDS011;6639;50.956;4.242;2023-02-19T01:05:47;9.15;;;7.10;;
13147;SDS011;6639;50.956;4.242;2023-02-19T01:08:14;9.63;;;6.43;;
13147;SDS011;6639;50.956;4.242;2023-02-19T01:10:41;10.55;;;6.10;;
13147;SDS011;6639;50.956;4.242;2023-02-19T01:13:09;10.38;;;6.20;;
13147;SDS011;6639;50.956;4.242;2023-02-19T01:15:37;9.27;;;6.38;;
13147;SDS011;6639;50.956;4.242;2023-02-19T01:18:04;9.25;;;5.85;;
13147;SDS011;6639;50.956;4.242;2023-02-19T01:20:32;10.05;;;5.45;;
13147;SDS011;6639;50.956;4.242;2023-02-19T01:23:00;9.10;;;5.25;;
13147;SDS011;6639;50.956;4.242;2023-02-19T01:25:26;9.65;;;5.28;;
13147;SDS011;6639;50.956;4.242;2023-02-19T01:27:54;5.70;;;4.60;;
13147;SDS011;6639;50.956;4.242;2023-02-19T01:30:20;6.65;;;4.35;;
13147;SDS011;6639;50.956;4.242;2023-02-19T01:32:49;7.82;;;4.50;;
13147;SDS011;6639;50.956;4.242;2023-02-19T01:35:16;7.63;;;3.95;;
13147;SDS011;6639;50.956;4.242;2023-02-19T01:37:43;9.10;;;4.47;;
13147;SDS011;6639;50.956;4.242;2023-02-19T01:40:10;9.48;;;4.05;;
13147;SDS011;6639;50.956;4.242;2023-02-19T01:42:36;7.22;;;3.67;;
13147;SDS011;6639;50.956;4.242;2023-02-19T01:47:49;5.57;;;3.40;;
13147;SDS011;6639;50.956;4.242;2023-02-19T01:50:29;7.55;;;3.40;;
13147;SDS011;6639;50.956;4.242;2023-02-19T01:53:02;9.23;;;3.60;;
13147;SDS011;6639;50.956;4.242;2023-02-19T01:55:32;10.45;;;4.63;;
13147;SDS011;6639;50.956;4.242;2023-02-19T01:58:00;8.45;;;3.67;;
13147;SDS011;6639;50.956;4.242;2023-02-19T02:00:28;6.65;;;3.40;;
13147;SDS011;6639;50.956;4.242;2023-02-19T02:02:57;6.82;;;3.10;;
13147;SDS011;6639;50.956;4.242;2023-02-19T02:05:37;8.40;;;3.67;;
13147;SDS011;6639;50.956;4.242;2023-02-19T02:08:11;9.57;;;3.80;;
13147;SDS011;6639;50.956;4.242;2023-02-19T02:10:57;7.00;;;3.13;;
13147;SDS011;6639;50.956;4.242;2023-02-19T02:13:24;6.65;;;4.10;;
13147;SDS011;6639;50.956;4.242;2023-02-19T02:15:53;5.45;;;3.22;;
13147;SDS011;6639;50.956;4.242;2023-02-19T02:18:33;7.25;;;3.10;;
13147;SDS011;6639;50.956;4.242;2023-02-19T02:21:14;9.15;;;3.33;;
13147;SDS011;6639;50.956;4.242;2023-02-19T02:27:16;5.97;;;2.83;;
13147;SDS011;6639;50.956;4.242;2023-02-19T02:30:13;8.05;;;3.08;;
13147;SDS011;6639;50.956;4.242;2023-02-19T02:32:53;10.65;;;3.65;;
13147;SDS011;6639;50.956;4.242;2023-02-19T02:35:24;6.90;;;3.50;;
13147;SDS011;6639;50.956;4.242;2023-02-19T02:37:55;8.32;;;3.55;;
13147;SDS011;6639;50.956;4.242;2023-02-19T02:40:27;8.40;;;3.28;;
13147;SDS011;6639;50.956;4.242;2023-02-19T02:42:55;7.57;;;3.10;;
13147;SDS011;6639;50.956;4.242;2023-02-19T02:45:26;6.15;;;3.15;;
13147;SDS011;6639;50.956;4.242;2023-02-19T02:48:10;8.43;;;3.08;;
13147;SDS011;6639;50.956;4.242;2023-02-19T02:50:45;9.35;;;3.05;;
13147;SDS011;6639;50.956;4.242;2023-02-19T02:53:15;7.32;;;2.63;;
13147;SDS011;6639;50.956;4.242;2023-02-19T02:56:02;5.53;;;2.60;;
13147;SDS011;6639;50.956;4.242;2023-02-19T02:58:30;6.72;;;2.40;;
13147;SDS011;6639;50.956;4.242;2023-02-19T03:01:01;8.13;;;3.28;;
13147;SDS011;6639;50.956;4.242;2023-02-19T03:03:50;7.93;;;2.80;;
13147;SDS011;6639;50.956;4.242;2023-02-19T03:06:20;5.22;;;2.40;;
13147;SDS011;6639;50.956;4.242;2023-02-19T03:08:50;8.23;;;2.70;;
13147;SDS011;6639;50.956;4.242;2023-02-19T03:11:21;4.90;;;2.60;;
13147;SDS011;6639;50.956;4.242;2023-02-19T03:14:07;7.68;;;2.85;;
13147;SDS011;6639;50.956;4.242;2023-02-19T03:16:59;6.38;;;2.53;;
13147;SDS011;6639;50.956;4.242;2023-02-19T03:19:50;7.93;;;2.35;;
13147;SDS011;6639;50.956;4.242;2023-02-19T03:22:21;11.52;;;2.88;;
13147;SDS011;6639;50.956;4.242;2023-02-19T03:24:51;7.82;;;2.72;;
13147;SDS011;6639;50.956;4.242;2023-02-19T03:27:40;7.40;;;2.63;;
13147;SDS011;6639;50.956;4.242;2023-02-19T03:30:09;9.70;;;2.63;;
13147;SDS011;6639;50.956;4.242;2023-02-19T03:32:43;8.93;;;3.17;;
13147;SDS011;6639;50.956;4.242;2023-02-19T03:35:14;6.18;;;2.53;;
13147;SDS011;6639;50.956;4.242;2023-02-19T03:37:45;13.38;;;3.30;;
13147;SDS011;6639;50.956;4.242;2023-02-19T03:40:18;7.78;;;2.53;;
13147;SDS011;6639;50.956;4.242;2023-02-19T03:42:51;6.15;;;2.38;;
13147;SDS011;6639;50.956;4.242;2023-02-19T03:45:29;8.50;;;2.78;;
13147;SDS011;6639;50.956;4.242;2023-02-19T03:48:08;8.80;;;3.03;;
13147;SDS011;6639;50.956;4.242;2023-02-19T03:50:49;12.90;;;3.35;;
13147;SDS011;6639;50.956;4.242;2023-02-19T03:53:23;6.95;;;2.40;;
13147;SDS011;6639;50.956;4.242;2023-02-19T03:56:00;8.55;;;3.08;;
13147;SDS011;6639;50.956;4.242;2023-02-19T03:58:34;9.57;;;2.45;;
13147;SDS011;6639;50.956;4.242;2023-02-19T04:01:11;11.35;;;2.90;;
13147;SDS011;6639;50.956;4.242;2023-02-19T04:03:44;9.20;;;2.45;;
13147;SDS011;6639;50.956;4.242;2023-02-19T04:06:14;9.30;;;2.50;;
13147;SDS011;6639;50.956;4.242;2023-02-19T04:08:47;8.85;;;3.22;;
13147;SDS011;6639;50.956;4.242;2023-02-19T04:11:18;8.27;;;2.85;;
13147;SDS011;6639;50.956;4.242;2023-02-19T04:13:48;13.25;;;3.22;;
13147;SDS011;6639;50.956;4.242;2023-02-19T04:16:27;6.55;;;2.13;;
13147;SDS011;6639;50.956;4.242;2023-02-19T04:18:58;8.73;;;2.80;;
13147;SDS011;6639;50.956;4.242;2023-02-19T04:21:31;12.20;;;3.03;;
13147;SDS011;6639;50.956;4.242;2023-02-19T04:24:01;11.02;;;2.63;;
13147;SDS011;6639;50.956;4.242;2023-02-19T04:26:32;10.73;;;3.00;;
13147;SDS011;6639;50.956;4.242;2023-02-19T04:29:00;9.18;;;2.63;;
13147;SDS011;6639;50.956;4.242;2023-02-19T04:31:28;11.55;;;3.22;;
13147;SDS011;6639;50.956;4.242;2023-02-19T04:34:00;8.68;;;2.85;;
13147;SDS011;6639;50.956;4.242;2023-02-19T04:36:28;12.85;;;3.38;;
13147;SDS011;6639;50.956;4.242;2023-02-19T04:38:55;9.65;;;2.72;;
13147;SDS011;6639;50.956;4.242;2023-02-19T04:41:22;15.77;;;3.50;;
13147;SDS011;6639;50.956;4.242;2023-02-19T04:43:49;6.05;;;3.17;;
13147;SDS011;6639;50.956;4.242;2023-02-19T04:46:16;12.75;;;3.78;;
13147;SDS011;6639;50.956;4.242;2023-02-19T04:48:43;13.27;;;3.00;;
13147;SDS011;6639;50.956;4.242;2023-02-19T04:51:11;10.73;;;3.08;;
13147;SDS011;6639;50.956;4.242;2023-02-19T04:53:38;9.25;;;2.70;;
13147;SDS011;6639;50.956;4.242;2023-02-19T04:56:06;12.85;;;3.38;;
13147;SDS011;6639;50.956;4.242;2023-02-19T04:58:34;13.10;;;2.92;;
13147;SDS011;6639;50.956;4.242;2023-02-19T05:01:01;12.48;;;3.85;;
13147;SDS011;6639;50.956;4.242;2023-02-19T05:03:28;11.85;;;3.38;;
13147;SDS011;6639;50.956;4.242;2023-02-19T05:05:55;10.10;;;3.65;;
13147;SDS011;6639;50.956;4.242;2023-02-19T05:08:23;9.85;;;3.00;;
13147;SDS011;6639;50.956;4.242;2023-02-19T05:10:50;10.13;;;3.42;;
13147;SDS011;6639;50.956;4.242;2023-02-19T05:13:17;13.75;;;3.50;;
13147;SDS011;6639;50.956;4.242;2023-02-19T05:15:52;14.65;;;4.60;;
13147;SDS011;6639;50.956;4.242;2023-02-19T05:18:20;11.75;;;3.47;;
13147;SDS011;6639;50.956;4.242;2023-02-19T05:20:48;10.85;;;3.50;;
13147;SDS011;6639;50.956;4.242;2023-02-19T05:23:15;8.43;;;2.70;;
13147;SDS011;6639;50.956;4.242;2023-02-19T05:25:44;12.68;;;3.40;;
13147;SDS011;6639;50.956;4.242;2023-02-19T05:28:11;14.13;;;3.33;;
13147;SDS011;6639;50.956;4.242;2023-02-19T05:30:44;11.02;;;3.53;;
13147;SDS011;6639;50.956;4.242;2023-02-19T05:33:12;10.07;;;3.00;;
13147;SDS011;6639;50.956;4.242;2023-02-19T05:35:40;10.88;;;2.97;;
13147;SDS011;6639;50.956;4.242;2023-02-19T05:38:07;9.10;;;3.05;;
13147;SDS011;6639;50.956;4.242;2023-02-19T05:40:34;11.80;;;2.95;;
13147;SDS011;6639;50.956;4.242;2023-02-19T05:43:03;11.18;;;2.53;;
13147;SDS011;6639;50.956;4.242;2023-02-19T05:45:31;8.75;;;2.85;;
13147;SDS011;6639;50.956;4.242;2023-02-19T05:47:58;8.20;;;3.13;;
13147;SDS011;6639;50.956;4.242;2023-02-19T05:50:26;10.13;;;2.80;;
13147;SDS011;6639;50.956;4.242;2023-02-19T05:52:53;7.57;;;2.70;;
13147;SDS011;6639;50.956;4.242;2023-02-19T05:55:20;12.25;;;3.47;;
13147;SDS011;6639;50.956;4.242;2023-02-19T05:57:48;12.68;;;6.18;;
13147;SDS011;6639;50.956;4.242;2023-02-19T06:00:17;17.52;;;4.75;;
13147;SDS011;6639;50.956;4.242;2023-02-19T06:02:44;10.27;;;3.30;;
13147;SDS011;6639;50.956;4.242;2023-02-19T06:05:12;10.70;;;3.08;;
13147;SDS011;6639;50.956;4.242;2023-02-19T06:07:39;11.15;;;3.17;;
13147;SDS011;6639;50.956;4.242;2023-02-19T06:10:07;7.65;;;2.95;;
13147;SDS011;6639;50.956;4.242;2023-02-19T06:12:34;12.98;;;3.20;;
13147;SDS011;6639;50.956;4.242;2023-02-19T06:15:01;11.82;;;3.28;;
13147;SDS011;6639;50.956;4.242;2023-02-19T06:17:31;9.73;;;3.35;;
13147;SDS011;6639;50.956;4.242;2023-02-19T06:19:58;10.80;;;3.08;;
13147;SDS011;6639;50.956;4.242;2023-02-19T06:22:25;11.82;;;5.78;;
13147;SDS011;6639;50.956;4.242;2023-02-19T06:24:53;10.75;;;3.95;;
13147;SDS011;6639;50.956;4.242;2023-02-19T06:27:20;8.95;;;3.63;;
13147;SDS011;6639;50.956;4.242;2023-02-19T06:29:46;11.73;;;3.42;;
13147;SDS011;6639;50.956;4.242;2023-02-19T06:32:13;9.55;;;3.00;;
13147;SDS011;6639;50.956;4.242;2023-02-19T06:34:42;10.02;;;2.83;;
13147;SDS011;6639;50.956;4.242;2023-02-19T06:37:09;7.03;;;2.90;;
13147;SDS011;6639;50.956;4.242;2023-02-19T06:39:36;8.82;;;2.83;;
13147;SDS011;6639;50.956;4.242;2023-02-19T06:42:03;7.10;;;2.90;;
13147;SDS011;6639;50.956;4.242;2023-02-19T06:44:30;10.35;;;3.30;;
13147;SDS011;6639;50.956;4.242;2023-02-19T06:46:57;9.10;;;3.53;;
13147;SDS011;6639;50.956;4.242;2023-02-19T06:49:24;9.15;;;2.97;;
13147;SDS011;6639;50.956;4.242;2023-02-19T06:51:52;8.23;;;3.05;;
13147;SDS011;6639;50.956;4.242;2023-02-19T06:54:19;6.28;;;2.53;;
13147;SDS011;6639;50.956;4.242;2023-02-19T06:56:46;6.72;;;3.03;;
13147;SDS011;6639;50.956;4.242;2023-02-19T06:59:13;11.85;;;4.38;;
13147;SDS011;6639;50.956;4.242;2023-02-19T07:01:41;12.63;;;3.85;;
13147;SDS011;6639;50.956;4.242;2023-02-19T07:04:10;13.35;;;3.63;;
13147;SDS011;6639;50.956;4.242;2023-02-19T07:06:37;7.85;;;3.00;;
13147;SDS011;6639;50.956;4.242;2023-02-19T07:09:06;8.85;;;3.25;;
13147;SDS011;6639;50.956;4.242;2023-02-19T07:11:34;14.45;;;3.67;;
13147;SDS011;6639;50.956;4.242;2023-02-19T07:14:04;8.35;;;2.80;;
13147;SDS011;6639;50.956;4.242;2023-02-19T07:16:32;8.88;;;3.63;;
13147;SDS011;6639;50.956;4.242;2023-02-19T07:19:00;12.95;;;3.53;;
13147;SDS011;6639;50.956;4.242;2023-02-19T07:21:27;11.98;;;3.47;;
13147;SDS011;6639;50.956;4.242;2023-02-19T07:23:54;7.22;;;2.75;;
13147;SDS011;6639;50.956;4.242;2023-02-19T07:26:23;7.97;;;2.55;;
13147;SDS011;6639;50.956;4.242;2023-02-19T07:28:50;10.75;;;2.50;;
13147;SDS011;6639;50.956;4.242;2023-02-19T07:31:19;14.98;;;3.17;;
13147;SDS011;6639;50.956;4.242;2023-02-19T07:33:47;8.85;;;2.65;;
13147;SDS011;6639;50.956;4.242;2023-02-19T07:36:14;14.75;;;2.95;;
13147;SDS011;6639;50.956;4.242;2023-02-19T07:38:42;7.32;;;2.45;;
13147;SDS011;6639;50.956;4.242;2023-02-19T07:41:10;7.90;;;2.83;;
13147;SDS011;6639;50.956;4.242;2023-02-19T07:43:41;8.95;;;2.28;;
13147;SDS011;6639;50.956;4.242;2023-02-19T07:46:08;11.30;;;3.10;;
13147;SDS011;6639;50.956;4.242;2023-02-19T07:48:38;6.75;;;2.25;;
13147;SDS011;6639;50.956;4.242;2023-02-19T07:51:07;8.57;;;2.75;;
13147;SDS011;6639;50.956;4.242;2023-02-19T07:53:36;8.93;;;3.25;;
13147;SDS011;6639;50.956;4.242;2023-02-19T07:56:05;8.55;;;3.20;;
13147;SDS011;6639;50.956;4.242;2023-02-19T07:58:33;10.75;;;3.15;;
13147;SDS011;6639;50.956;4.242;2023-02-19T08:01:06;6.78;;;2.80;;
13147;SDS011;6639;50.956;4.242;2023-02-19T08:03:35;6.85;;;2.55;;
13147;SDS011;6639;50.956;4.242;2023-02-19T08:06:01;8.32;;;3.55;;
13147;SDS011;6639;50.956;4.242;2023-02-19T08:08:28;8.18;;;2.63;;
13147;SDS011;6639;50.956;4.242;2023-02-19T08:10:57;9.55;;;2.80;;
13147;SDS011;6639;50.956;4.242;2023-02-19T08:13:42;13.88;;;2.78;;
13147;SDS011;6639;50.956;4.242;2023-02-19T08:16:12;11.25;;;2.95;;
13147;SDS011;6639;50.956;4.242;2023-02-19T08:18:41;9.13;;;2.58;;
13147;SDS011;6639;50.956;4.242;2023-02-19T08:21:09;8.60;;;2.45;;
13147;SDS011;6639;50.956;4.242;2023-02-19T08:23:36;12.43;;;3.30;;
13147;SDS011;6639;50.956;4.242;2023-02-19T08:26:03;9.30;;;2.70;;
13147;SDS011;6639;50.956;4.242;2023-02-19T08:28:31;9.23;;;2.90;;
13147;SDS011;6639;50.956;4.242;2023-02-19T08:30:58;10.85;;;3.22;;
13147;SDS011;6639;50.956;4.242;2023-02-19T08:33:29;11.88;;;2.80;;
13147;SDS011;6639;50.956;4.242;2023-02-19T08:35:56;9.45;;;3.03;;
13147;SDS011;6639;50.956;4.242;2023-02-19T08:38:28;11.45;;;3.25;;
13147;SDS011;6639;50.956;4.242;2023-02-19T08:40:55;7.38;;;2.83;;
13147;SDS011;6639;50.956;4.242;2023-02-19T08:43:22;9.80;;;2.88;;
13147;SDS011;6639;50.956;4.242;2023-02-19T08:45:51;6.32;;;2.30;;
13147;SDS011;6639;50.956;4.242;2023-02-19T08:48:18;11.95;;;3.45;;
13147;SDS011;6639;50.956;4.242;2023-02-19T08:50:53;5.65;;;2.70;;
13147;SDS011;6639;50.956;4.242;2023-02-19T08:53:21;8.55;;;2.53;;
13147;SDS011;6639;50.956;4.242;2023-02-19T08:55:48;11.13;;;3.40;;
13147;SDS011;6639;50.956;4.242;2023-02-19T08:58:15;7.55;;;3.25;;
13147;SDS011;6639;50.956;4.242;2023-02-19T09:00:42;9.00;;;2.67;;
13147;SDS011;6639;50.956;4.242;2023-02-19T09:03:09;9.55;;;3.15;;
13147;SDS011;6639;50.956;4.242;2023-02-19T09:05:36;7.00;;;3.08;;
13147;SDS011;6639;50.956;4.242;2023-02-19T09:08:05;7.32;;;2.95;;
13147;SDS011;6639;50.956;4.242;2023-02-19T09:10:32;8.98;;;2.92;;
13147;SDS011;6639;50.956;4.242;2023-02-19T09:12:59;8.10;;;3.45;;
13147;SDS011;6639;50.956;4.242;2023-02-19T09:15:26;8.30;;;2.83;;
13147;SDS011;6639;50.956;4.242;2023-02-19T09:17:53;9.82;;;2.85;;
13147;SDS011;6639;50.956;4.242;2023-02-19T09:20:20;8.70;;;3.00;;
13147;SDS011;6639;50.956;4.242;2023-02-19T09:22:47;13.43;;;3.30;;
13147;SDS011;6639;50.956;4.242;2023-02-19T09:25:19;5.93;;;2.83;;
13147;SDS011;6639;50.956;4.242;2023-02-19T09:27:46;6.85;;;2.72;;
13147;SDS011;6639;50.956;4.242;2023-02-19T09:30:13;7.70;;;2.65;;
13147;SDS011;6639;50.956;4.242;2023-02-19T09:32:40;8.13;;;2.40;;
13147;SDS011;6639;50.956;4.242;2023-02-19T09:35:06;7.50;;;2.75;;
13147;SDS011;6639;50.956;4.242;2023-02-19T09:37:35;7.88;;;2.55;;
13147;SDS011;6639;50.956;4.242;2023-02-19T09:40:02;10.32;;;3.08;;
13147;SDS011;6639;50.956;4.242;2023-02-19T09:42:30;6.63;;;2.72;;
13147;SDS011;6639;50.956;4.242;2023-02-19T09:44:58;5.35;;;2.75;;
13147;SDS011;6639;50.956;4.242;2023-02-19T09:47:27;5.97;;;2.47;;
13147;SDS011;6639;50.956;4.242;2023-02-19T09:49:58;8.63;;;3.22;;
13147;SDS011;6639;50.956;4.242;2023-02-19T09:52:31;10.13;;;3.08;;
13147;SDS011;6639;50.956;4.242;2023-02-19T09:55:03;7.47;;;2.75;;
13147;SDS011;6639;50.956;4.242;2023-02-19T09:57:41;7.55;;;3.38;;
13147;SDS011;6639;50.956;4.242;2023-02-19T10:00:17;7.70;;;2.83;;
13147;SDS011;6639;50.956;4.242;2023-02-19T10:02:49;7.38;;;2.63;;
13147;SDS011;6639;50.956;4.242;2023-02-19T10:05:17;5.93;;;2.45;;
13147;SDS011;6639;50.956;4.242;2023-02-19T10:07:46;6.90;;;2.42;;
13147;SDS011;6639;50.956;4.242;2023-02-19T10:10:21;17.55;;;3.25;;
13147;SDS011;6639;50.956;4.242;2023-02-19T10:12:54;13.38;;;2.72;;
13147;SDS011;6639;50.956;4.242;2023-02-19T10:15:25;6.70;;;2.60;;
13147;SDS011;6639;50.956;4.242;2023-02-19T10:17:57;7.78;;;3.00;;
13147;SDS011;6639;50.956;4.242;2023-02-19T10:20:24;5.88;;;2.58;;
13147;SDS011;6639;50.956;4.242;2023-02-19T10:22:54;5.50;;;2.53;;
13147;SDS011;6639;50.956;4.242;2023-02-19T10:25:25;6.30;;;2.38;;
13147;SDS011;6639;50.956;4.242;2023-02-19T10:27:54;7.32;;;2.90;;
13147;SDS011;6639;50.956;4.242;2023-02-19T10:30:23;9.80;;;3.25;;
13147;SDS011;6639;50.956;4.242;2023-02-19T10:33:00;7.85;;;3.42;;
13147;SDS011;6639;50.956;4.242;2023-02-19T10:35:30;5.03;;;2.67;;
13147;SDS011;6639;50.956;4.242;2023-02-19T10:38:01;9.73;;;3.03;;
13147;SDS011;6639;50.956;4.242;2023-02-19T10:40:30;6.55;;;2.53;;
13147;SDS011;6639;50.956;4.242;2023-02-19T10:43:02;6.32;;;2.65;;
13147;SDS011;6639;50.956;4.242;2023-02-19T10:45:33;9.68;;;2.97;;
13147;SDS011;6639;50.956;4.242;2023-02-19T10:48:20;6.03;;;2.75;;
13147;SDS011;6639;50.956;4.242;2023-02-19T10:51:05;7.72;;;2.80;;
13147;SDS011;6639;50.956;4.242;2023-02-19T10:53:36;3.38;;;2.55;;
13147;SDS011;6639;50.956;4.242;2023-02-19T10:56:06;6.65;;;2.92;;
13147;SDS011;6639;50.956;4.242;2023-02-19T10:58:36;7.57;;;2.55;;
13147;SDS011;6639;50.956;4.242;2023-02-19T11:01:10;7.32;;;2.45;;
13147;SDS011;6639;50.956;4.242;2023-02-19T11:03:42;7.95;;;3.17;;
13147;SDS011;6639;50.956;4.242;2023-02-19T11:06:09;7.75;;;2.97;;
13147;SDS011;6639;50.956;4.242;2023-02-19T11:14:12;5.07;;;2.13;;
13147;SDS011;6639;50.956;4.242;2023-02-19T11:16:44;8.55;;;2.55;;
13147;SDS011;6639;50.956;4.242;2023-02-19T11:19:20;7.60;;;3.47;;
13147;SDS011;6639;50.956;4.242;2023-02-19T11:21:50;3.40;;;3.05;;
13147;SDS011;6639;50.956;4.242;2023-02-19T11:24:20;4.72;;;2.85;;
13147;SDS011;6639;50.956;4.242;2023-02-19T11:26:51;8.85;;;3.08;;
13147;SDS011;6639;50.956;4.242;2023-02-19T11:29:20;4.25;;;2.58;;
13147;SDS011;6639;50.956;4.242;2023-02-19T11:31:52;6.25;;;2.80;;
13147;SDS011;6639;50.956;4.242;2023-02-19T11:34:27;5.18;;;2.83;;
13147;SDS011;6639;50.956;4.242;2023-02-19T11:37:07;7.03;;;2.58;;
13147;SDS011;6639;50.956;4.242;2023-02-19T11:39:37;5.22;;;2.53;;
13147;SDS011;6639;50.956;4.242;2023-02-19T11:44:58;7.93;;;3.17;;
13147;SDS011;6639;50.956;4.242;2023-02-19T11:50:56;6.32;;;3.53;;
13147;SDS011;6639;50.956;4.242;2023-02-19T11:53:38;6.68;;;3.72;;
13147;SDS011;6639;50.956;4.242;2023-02-19T11:56:17;6.57;;;3.20;;
13147;SDS011;6639;50.956;4.242;2023-02-19T11:58:50;8.93;;;3.50;;
13147;SDS011;6639;50.956;4.242;2023-02-19T12:01:29;7.40;;;3.88;;
13147;SDS011;6639;50.956;4.242;2023-02-19T12:07:05;4.55;;;2.63;;
13147;SDS011;6639;50.956;4.242;2023-02-19T12:09:45;5.28;;;3.30;;
13147;SDS011;6639;50.956;4.242;2023-02-19T12:12:25;7.85;;;3.17;;
13147;SDS011;6639;50.956;4.242;2023-02-19T12:15:18;4.28;;;2.97;;
13147;SDS011;6639;50.956;4.242;2023-02-19T12:18:11;7.80;;;2.75;;
13147;SDS011;6639;50.956;4.242;2023-02-19T12:20:50;5.90;;;2.53;;
13147;SDS011;6639;50.956;4.242;2023-02-19T12:23:32;4.80;;;2.60;;
13147;SDS011;6639;50.956;4.242;2023-02-19T12:26:19;5.65;;;2.70;;
13147;SDS011;6639;50.956;4.242;2023-02-19T12:37:46;3.50;;;3.05;;
13147;SDS011;6639;50.956;4.242;2023-02-19T12:40:24;4.75;;;2.80;;
13147;SDS011;6639;50.956;4.242;2023-02-19T12:43:08;5.03;;;2.95;;
13147;SDS011;6639;50.956;4.242;2023-02-19T12:45:39;4.10;;;2.10;;
13147;SDS011;6639;50.956;4.242;2023-02-19T12:48:23;5.07;;;2.50;;
13147;SDS011;6639;50.956;4.242;2023-02-19T12:50:55;5.00;;;3.20;;
13147;SDS011;6639;50.956;4.242;2023-02-19T12:53:29;4.68;;;2.80;;
13147;SDS011;6639;50.956;4.242;2023-02-19T12:56:04;4.50;;;2.80;;
13147;SDS011;6639;50.956;4.242;2023-02-19T12:58:36;10.48;;;2.88;;
13147;SDS011;6639;50.956;4.242;2023-02-19T13:01:09;4.95;;;2.63;;
13147;SDS011;6639;50.956;4.242;2023-02-19T13:03:44;3.35;;;2.60;;
13147;SDS011;6639;50.956;4.242;2023-02-19T13:06:23;5.38;;;3.50;;
13147;SDS011;6639;50.956;4.242;2023-02-19T13:08:58;4.07;;;2.58;;
13147;SDS011;6639;50.956;4.242;2023-02-19T13:11:29;5.55;;;2.47;;
13147;SDS011;6639;50.956;4.242;2023-02-19T13:14:02;6.13;;;3.05;;
13147;SDS011;6639;50.956;4.242;2023-02-19T13:16:36;4.30;;;2.90;;
13147;SDS011;6639;50.956;4.242;2023-02-19T13:19:08;4.57;;;2.97;;
13147;SDS011;6639;50.956;4.242;2023-02-19T13:21:40;5.80;;;2.70;;
13147;SDS011;6639;50.956;4.242;2023-02-19T13:24:27;5.85;;;2.88;;
13147;SDS011;6639;50.956;4.242;2023-02-19T13:27:02;2.45;;;2.25;;
13147;SDS011;6639;50.956;4.242;2023-02-19T13:29:51;4.82;;;2.60;;
13147;SDS011;6639;50.956;4.242;2023-02-19T13:32:46;6.90;;;2.83;;
13147;SDS011;6639;50.956;4.242;2023-02-19T13:35:30;3.40;;;2.58;;
13147;SDS011;6639;50.956;4.242;2023-02-19T13:38:19;3.85;;;2.28;;
13147;SDS011;6639;50.956;4.242;2023-02-19T13:40:52;3.97;;;2.65;;
13147;SDS011;6639;50.956;4.242;2023-02-19T13:43:33;7.15;;;2.95;;
13147;SDS011;6639;50.956;4.242;2023-02-19T13:46:04;3.10;;;2.70;;
13147;SDS011;6639;50.956;4.242;2023-02-19T13:48:34;3.00;;;2.55;;
13147;SDS011;6639;50.956;4.242;2023-02-19T13:54:24;3.53;;;2.22;;
13147;SDS011;6639;50.956;4.242;2023-02-19T13:59:53;3.65;;;2.03;;
13147;SDS011;6639;50.956;4.242;2023-02-19T14:04:59;3.65;;;2.53;;
13147;SDS011;6639;50.956;4.242;2023-02-19T14:28:26;2.92;;;2.10;;
13147;SDS011;6639;50.956;4.242;2023-02-19T14:30:58;4.85;;;2.20;;
13147;SDS011;6639;50.956;4.242;2023-02-19T14:33:30;2.25;;;2.05;;
13147;SDS011;6639;50.956;4.242;2023-02-19T14:36:00;3.83;;;2.40;;
13147;SDS011;6639;50.956;4.242;2023-02-19T14:38:31;2.30;;;2.10;;
13147;SDS011;6639;50.956;4.242;2023-02-19T14:41:02;4.32;;;2.55;;
13147;SDS011;6639;50.956;4.242;2023-02-19T14:43:31;3.13;;;2.67;;
13147;SDS011;6639;50.956;4.242;2023-02-19T14:46:01;3.90;;;2.42;;
13147;SDS011;6639;50.956;4.242;2023-02-19T14:48:35;3.10;;;2.53;;
13147;SDS011;6639;50.956;4.242;2023-02-19T14:51:10;4.07;;;2.42;;
13147;SDS011;6639;50.956;4.242;2023-02-19T14:53:40;6.43;;;2.15;;
13147;SDS011;6639;50.956;4.242;2023-02-19T14:56:15;2.45;;;2.25;;
13147;SDS011;6639;50.956;4.242;2023-02-19T14:58:45;2.90;;;2.70;;
13147;SDS011;6639;50.956;4.242;2023-02-19T15:01:32;5.25;;;2.67;;
13147;SDS011;6639;50.956;4.242;2023-02-19T15:04:00;3.05;;;2.80;;
13147;SDS011;6639;50.956;4.242;2023-02-19T15:06:27;3.40;;;2.30;;
13147;SDS011;6639;50.956;4.242;2023-02-19T15:08:57;2.45;;;2.25;;
13147;SDS011;6639;50.956;4.242;2023-02-19T15:11:27;2.95;;;2.50;;
13147;SDS011;6639;50.956;4.242;2023-02-19T15:13:57;3.95;;;2.70;;
13147;SDS011;6639;50.956;4.242;2023-02-19T15:16:26;2.60;;;2.40;;
13147;SDS011;6639;50.956;4.242;2023-02-19T15:18:55;3.42;;;2.45;;
13147;SDS011;6639;50.956;4.242;2023-02-19T15:21:26;3.08;;;2.15;;
13147;SDS011;6639;50.956;4.242;2023-02-19T15:23:55;2.97;;;2.45;;
13147;SDS011;6639;50.956;4.242;2023-02-19T15:26:26;2.40;;;2.30;;
13147;SDS011;6639;50.956;4.242;2023-02-19T15:28:58;2.72;;;2.53;;
13147;SDS011;6639;50.956;4.242;2023-02-19T15:31:29;3.15;;;2.78;;
13147;SDS011;6639;50.956;4.242;2023-02-19T15:33:56;3.47;;;2.97;;
13147;SDS011;6639;50.956;4.242;2023-02-19T15:36:24;6.30;;;3.40;;
13147;SDS011;6639;50.956;4.242;2023-02-19T15:38:55;5.32;;;3.22;;
13147;SDS011;6639;50.956;4.242;2023-02-19T15:41:25;4.03;;;3.63;;
13147;SDS011;6639;50.956;4.242;2023-02-19T15:43:56;3.30;;;3.00;;
13147;SDS011;6639;50.956;4.242;2023-02-19T15:46:30;3.92;;;3.20;;
13147;SDS011;6639;50.956;4.242;2023-02-19T15:48:59;3.63;;;3.10;;
13147;SDS011;6639;50.956;4.242;2023-02-19T15:51:33;4.55;;;3.10;;
13147;SDS011;6639;50.956;4.242;2023-02-19T15:54:05;4.43;;;3.75;;
13147;SDS011;6639;50.956;4.242;2023-02-19T15:56:37;4.05;;;3.10;;
13147;SDS011;6639;50.956;4.242;2023-02-19T15:59:12;4.15;;;3.75;;
13147;SDS011;6639;50.956;4.242;2023-02-19T16:01:45;3.15;;;2.70;;
13147;SDS011;6639;50.956;4.242;2023-02-19T16:04:12;2.83;;;2.58;;
13147;SDS011;6639;50.956;4.242;2023-02-19T16:06:53;3.30;;;2.95;;
13147;SDS011;6639;50.956;4.242;2023-02-19T16:09:22;4.05;;;3.20;;
13147;SDS011;6639;50.956;4.242;2023-02-19T16:11:55;4.28;;;3.72;;
13147;SDS011;6639;50.956;4.242;2023-02-19T16:14:27;4.25;;;3.85;;
13147;SDS011;6639;50.956;4.242;2023-02-19T16:16:56;4.60;;;4.10;;
13147;SDS011;6639;50.956;4.242;2023-02-19T16:19:25;3.60;;;3.25;;
13147;SDS011;6639;50.956;4.242;2023-02-19T16:21:56;4.68;;;4.18;;